createdAt,value
2023-01-23T00:00:15.707Z,102808.41
2023-01-23T00:02:43.966Z,102802.09
2023-01-23T00:05:12.227Z,102809.41
2023-01-23T00:07:40.098Z,102791.41
2023-01-23T00:10:08.911Z,102811.28
2023-01-23T00:12:38.417Z,102805.84
2023-01-23T00:15:09.440Z,102820.44
2023-01-23T00:17:37.339Z,102814.16
2023-01-23T00:20:05.801Z,102768.94
2023-01-23T00:22:33.999Z,102811.28
2023-01-23T00:25:01.889Z,102810.41
2023-01-23T00:27:29.780Z,102804.81
2023-01-23T00:29:59.082Z,102803.09
2023-01-23T00:32:27.281Z,102815.00
2023-01-23T00:34:55.148Z,102813.28
2023-01-23T00:37:23.077Z,102811.44
2023-01-23T00:39:51.515Z,102806.84
2023-01-23T00:42:19.680Z,102811.44
2023-01-23T00:44:47.615Z,102775.56
2023-01-23T00:47:16.849Z,102814.34
2023-01-23T00:49:44.708Z,102770.81
2023-01-23T00:52:12.907Z,102812.28
2023-01-23T00:54:40.847Z,102807.00
2023-01-23T00:57:08.712Z,102812.28
2023-01-23T00:59:36.674Z,102813.28
2023-01-23T01:02:04.815Z,102736.09
2023-01-23T01:04:34.057Z,102823.31
2023-01-23T01:07:02.038Z,102823.31
2023-01-23T01:09:29.919Z,102811.63
2023-01-23T01:11:58.314Z,102809.72
2023-01-23T01:14:26.207Z,102790.88
2023-01-23T01:16:54.090Z,102817.88
2023-01-23T01:19:21.937Z,102821.44
2023-01-23T01:21:51.527Z,102804.66
2023-01-23T01:24:19.384Z,102833.38
2023-01-23T01:26:47.249Z,102827.09
2023-01-23T01:29:15.193Z,102837.75
2023-01-23T01:31:43.384Z,102835.25
2023-01-23T01:34:11.301Z,102846.09
2023-01-23T01:36:39.205Z,102833.53
2023-01-23T01:39:10.737Z,102836.09
2023-01-23T01:41:38.612Z,102831.66
2023-01-23T01:44:07.737Z,102835.25
2023-01-23T01:46:35.670Z,102837.09
2023-01-23T01:49:07.630Z,102849.69
2023-01-23T01:51:38.098Z,102841.53
2023-01-23T01:54:10.795Z,102853.41
2023-01-23T01:56:41.153Z,102848.81
2023-01-23T01:59:09.012Z,102854.25
2023-01-23T02:01:37.199Z,102846.09
2023-01-23T02:04:05.586Z,102854.25
2023-01-23T02:06:33.486Z,102859.69
2023-01-23T02:09:04.092Z,102768.81
2023-01-23T02:11:33.715Z,102858.84
2023-01-23T02:14:01.635Z,102848.13
2023-01-23T02:16:31.309Z,102845.25
2023-01-23T02:19:00.972Z,102851.69
2023-01-23T02:21:29.630Z,102788.75
2023-01-23T02:24:05.008Z,102815.81
2023-01-23T02:26:36.756Z,102834.84
2023-01-23T02:29:04.900Z,102856.28
2023-01-23T02:31:35.212Z,102854.41
2023-01-23T02:34:03.133Z,102858.16
2023-01-23T02:36:32.101Z,102850.16
2023-01-23T02:39:03.944Z,102858.00
2023-01-23T02:41:34.249Z,102858.16
2023-01-23T02:44:03.630Z,102856.28
2023-01-23T02:46:31.525Z,102852.72
2023-01-23T02:49:00.612Z,102856.13
2023-01-23T02:51:28.818Z,102847.13
2023-01-23T02:53:56.736Z,102855.44
2023-01-23T02:56:24.645Z,102851.00
2023-01-23T02:59:12.109Z,102843.72
2023-01-23T03:01:40.051Z,102831.66
2023-01-23T03:04:07.961Z,102740.47
2023-01-23T03:06:37.830Z,102828.25
2023-01-23T03:09:08.057Z,102806.31
2023-01-23T03:11:36.728Z,102819.06
2023-01-23T03:14:06.235Z,102821.97
2023-01-23T03:16:37.219Z,102826.38
2023-01-23T03:19:08.797Z,102826.53
2023-01-23T03:21:37.893Z,102826.53
2023-01-23T03:24:06.191Z,102826.53
2023-01-23T03:26:34.081Z,102828.25
2023-01-23T03:29:19.821Z,102838.44
2023-01-23T03:31:49.167Z,102836.56
2023-01-23T03:34:18.032Z,102837.41
2023-01-23T03:36:46.470Z,102847.44
2023-01-23T03:39:32.241Z,102845.75
2023-01-23T03:42:00.123Z,102853.91
2023-01-23T03:44:27.979Z,102856.63
2023-01-23T03:46:57.279Z,102862.06
2023-01-23T03:49:26.099Z,102866.66
2023-01-23T03:51:54.250Z,102864.78
2023-01-23T03:54:22.111Z,102861.22
2023-01-23T03:56:50.014Z,102863.94
2023-01-23T03:59:17.895Z,102856.63
2023-01-23T04:01:45.796Z,102863.94
2023-01-23T04:04:15.061Z,102837.03
2023-01-23T04:06:42.959Z,102876.66
2023-01-23T04:09:10.829Z,102876.66
2023-01-23T04:11:39.104Z,102844.31
2023-01-23T04:14:07.019Z,102872.09
2023-01-23T04:16:34.941Z,102876.81
2023-01-23T04:19:02.844Z,102875.31
2023-01-23T04:21:32.434Z,102882.59
2023-01-23T04:24:00.342Z,102880.91
2023-01-23T04:26:28.242Z,102881.91
2023-01-23T04:28:56.106Z,102869.31
2023-01-23T04:31:25.202Z,102868.31
2023-01-23T04:33:53.146Z,102869.16
2023-01-23T04:36:21.000Z,102868.31
2023-01-23T04:38:50.263Z,102861.03
2023-01-23T04:41:20.467Z,102857.44
2023-01-23T04:43:48.321Z,102860.00
2023-01-23T04:46:16.231Z,102854.56
2023-01-23T04:48:44.129Z,102861.88
2023-01-23T04:51:12.391Z,102863.75
2023-01-23T04:53:40.326Z,102871.03
2023-01-23T04:56:10.297Z,102863.75
2023-01-23T04:58:38.168Z,102863.59
2023-01-23T05:01:06.612Z,102864.59
2023-01-23T05:03:35.186Z,102860.16
2023-01-23T05:06:03.189Z,102864.59
2023-01-23T05:08:31.097Z,102858.31
2023-01-23T05:11:00.315Z,102861.88
2023-01-23T05:13:29.584Z,102854.56
2023-01-23T05:15:58.486Z,102859.16
2023-01-23T05:18:26.544Z,102861.03
2023-01-23T05:20:54.781Z,102863.59
2023-01-23T05:23:22.747Z,102862.72
2023-01-23T05:25:50.671Z,102867.97
2023-01-23T05:28:18.537Z,102869.88
2023-01-23T05:30:48.609Z,102861.84
2023-01-23T05:33:16.626Z,102870.88
2023-01-23T05:35:44.661Z,102875.31
2023-01-23T05:38:13.363Z,102877.16
2023-01-23T05:40:41.248Z,102874.25
2023-01-23T05:43:09.419Z,102875.31
2023-01-23T05:45:37.296Z,102877.16
2023-01-23T05:48:07.271Z,102884.13
2023-01-23T05:50:35.205Z,102877.16
2023-01-23T05:53:03.596Z,102886.69
2023-01-23T05:55:31.499Z,102888.72
2023-01-23T05:57:59.458Z,102888.72
2023-01-23T06:00:27.794Z,102896.84
2023-01-23T06:02:56.100Z,102895.34
2023-01-23T06:05:25.387Z,102898.72
2023-01-23T06:07:53.257Z,102899.75
2023-01-23T06:10:21.572Z,102903.50
2023-01-23T06:12:50.035Z,102907.06
2023-01-23T06:15:18.372Z,102906.22
2023-01-23T06:17:46.330Z,102798.47
2023-01-23T06:20:15.110Z,102918.78
2023-01-23T06:22:44.660Z,102912.31
2023-01-23T06:25:12.812Z,102898.88
2023-01-23T06:27:40.678Z,102917.59
2023-01-23T06:30:12.864Z,102839.28
2023-01-23T06:32:40.954Z,102912.16
2023-01-23T06:35:09.513Z,102920.31
2023-01-23T06:37:37.482Z,102925.59
2023-01-23T06:40:08.182Z,102934.59
2023-01-23T06:42:36.343Z,102932.88
2023-01-23T06:45:04.350Z,102899.00
2023-01-23T06:47:33.045Z,102929.66
2023-01-23T06:50:02.103Z,102954.63
2023-01-23T06:52:30.085Z,102943.56
2023-01-23T06:54:57.991Z,102930.09
2023-01-23T06:57:27.308Z,102920.38
2023-01-23T06:59:55.197Z,102963.81
2023-01-23T07:02:23.573Z,102965.34
2023-01-23T07:04:51.519Z,102964.66
2023-01-23T07:07:19.537Z,102970.25
2023-01-23T07:09:47.448Z,102959.19
2023-01-23T07:12:15.625Z,102977.03
2023-01-23T07:14:44.910Z,102984.38
2023-01-23T07:17:12.903Z,102983.53
2023-01-23T07:19:40.756Z,102986.25
2023-01-23T07:22:08.640Z,102988.09
2023-01-23T07:24:36.553Z,102992.69
2023-01-23T07:27:04.562Z,102996.25
2023-01-23T07:29:32.517Z,102999.13
2023-01-23T07:32:02.158Z,103004.41
2023-01-23T07:34:30.110Z,103006.28
2023-01-23T07:36:57.982Z,103005.44
2023-01-23T07:39:26.020Z,103001.69
2023-01-23T07:41:54.246Z,103002.72
2023-01-23T07:44:22.610Z,103007.44
2023-01-23T07:46:50.545Z,103008.13
2023-01-23T07:49:19.905Z,103013.56
2023-01-23T07:51:48.099Z,102998.06
2023-01-23T07:54:17.359Z,103010.88
2023-01-23T07:56:45.245Z,103010.00
2023-01-23T07:59:13.568Z,103026.16
2023-01-23T08:01:41.767Z,103020.66
2023-01-23T08:04:09.759Z,103028.03
2023-01-23T08:06:39.155Z,103031.59
2023-01-23T08:09:07.056Z,103027.16
2023-01-23T08:11:35.320Z,103021.72
2023-01-23T08:14:03.285Z,103017.47
2023-01-23T08:16:31.237Z,103026.31
2023-01-23T08:18:59.193Z,103027.16
2023-01-23T08:21:27.456Z,103038.03
2023-01-23T08:23:56.764Z,103030.03
2023-01-23T08:26:24.686Z,103026.31
2023-01-23T08:28:52.604Z,103018.16
2023-01-23T08:31:20.879Z,103025.47
2023-01-23T08:33:48.870Z,103026.31
2023-01-23T08:36:16.824Z,103027.16
2023-01-23T08:38:44.747Z,103009.13
2023-01-23T08:41:14.387Z,103007.13
2023-01-23T08:43:42.559Z,103017.16
2023-01-23T08:46:10.556Z,103019.00
2023-01-23T08:48:38.526Z,102999.97
2023-01-23T08:51:07.725Z,103029.88
2023-01-23T08:53:36.067Z,103023.75
2023-01-23T08:56:06.828Z,103026.31
2023-01-23T08:58:36.128Z,103035.31
2023-01-23T09:01:04.287Z,103035.31
2023-01-23T09:03:32.219Z,103033.47
2023-01-23T09:06:02.452Z,103032.59
2023-01-23T09:08:30.381Z,103032.44
2023-01-23T09:11:01.487Z,103019.50
2023-01-23T09:13:29.362Z,103028.88
2023-01-23T09:15:58.648Z,103035.31
2023-01-23T09:18:26.628Z,103028.19
2023-01-23T09:20:54.878Z,102857.25
2023-01-23T09:23:22.759Z,103033.59
2023-01-23T09:25:52.135Z,103043.31
2023-01-23T09:28:20.026Z,103038.75
2023-01-23T09:30:47.948Z,103032.59
2023-01-23T09:33:18.083Z,103037.03
2023-01-23T09:35:46.265Z,103046.03
2023-01-23T09:38:14.154Z,103047.91
2023-01-23T09:40:47.031Z,103016.22
2023-01-23T09:43:17.936Z,103022.00
2023-01-23T09:45:48.727Z,103045.19
2023-01-23T09:48:20.839Z,103065.06
2023-01-23T09:51:00.729Z,103026.38
2023-01-23T09:53:32.161Z,103068.66
2023-01-23T09:56:01.377Z,103073.22
2023-01-23T09:58:32.053Z,103066.75
2023-01-23T10:01:00.509Z,103065.06
2023-01-23T10:03:31.374Z,103063.16
2023-01-23T10:06:07.102Z,103065.94
2023-01-23T10:08:37.730Z,103015.78
2023-01-23T10:11:07.477Z,103070.50
2023-01-23T10:13:52.012Z,103054.34
2023-01-23T10:16:35.400Z,103029.09
2023-01-23T10:19:19.336Z,103068.66
2023-01-23T10:21:49.016Z,103061.81
2023-01-23T10:24:26.315Z,103065.06
2023-01-23T10:26:54.232Z,103075.94
2023-01-23T10:29:29.754Z,103040.66
2023-01-23T10:31:58.885Z,103075.75
2023-01-23T10:34:34.446Z,103045.25
2023-01-23T10:37:08.341Z,102938.88
2023-01-23T10:39:46.569Z,103079.50
2023-01-23T10:42:14.734Z,103074.09
2023-01-23T10:44:42.608Z,103075.94
2023-01-23T10:47:15.891Z,103069.47
2023-01-23T10:49:46.636Z,103070.31
2023-01-23T10:52:30.976Z,103070.31
2023-01-23T10:54:58.882Z,103077.63
2023-01-23T10:57:27.201Z,103078.47
2023-01-23T10:59:56.956Z,103074.91
2023-01-23T11:02:28.813Z,103063.84
2023-01-23T11:04:58.194Z,103057.56
2023-01-23T11:07:26.633Z,103059.25
2023-01-23T11:09:56.233Z,103054.00
2023-01-23T11:12:25.436Z,103063.03
2023-01-23T11:14:53.780Z,103070.16
2023-01-23T11:17:23.700Z,103064.88
2023-01-23T11:19:53.654Z,103036.97
2023-01-23T11:22:28.891Z,103061.31
2023-01-23T11:24:56.945Z,103059.44
2023-01-23T11:27:26.679Z,103051.28
2023-01-23T11:30:19.797Z,102998.31
2023-01-23T11:32:50.800Z,103049.44
2023-01-23T11:35:21.396Z,103024.25
2023-01-23T11:37:50.891Z,103041.28
2023-01-23T11:40:20.405Z,103034.13
2023-01-23T11:42:48.658Z,103033.97
2023-01-23T11:45:21.899Z,103030.41
2023-01-23T11:47:56.143Z,103030.25
2023-01-23T11:50:30.672Z,103020.38
2023-01-23T11:53:03.496Z,102978.66
2023-01-23T11:55:46.351Z,103015.81
2023-01-23T11:58:21.380Z,103022.09
2023-01-23T12:00:52.907Z,103028.53
2023-01-23T12:03:32.772Z,103017.66
2023-01-23T12:06:39.407Z,103025.81
2023-01-23T12:09:12.227Z,103029.41
2023-01-23T12:11:46.726Z,103032.13
2023-01-23T12:14:17.285Z,103028.53
2023-01-23T12:17:13.765Z,103026.69
2023-01-23T12:19:52.949Z,103023.97
2023-01-23T12:22:24.170Z,103014.94
2023-01-23T12:25:03.193Z,103015.97
2023-01-23T12:27:37.561Z,102997.88
2023-01-23T12:30:39.022Z,103023.97
2023-01-23T12:33:17.174Z,103021.25
2023-01-23T12:35:49.272Z,103025.66
2023-01-23T12:38:25.107Z,102952.56
2023-01-23T12:40:57.377Z,103032.97
2023-01-23T12:43:33.135Z,103017.81
2023-01-23T12:46:17.242Z,103021.25
2023-01-23T12:48:46.829Z,102998.75
2023-01-23T12:51:17.852Z,102897.41
2023-01-23T12:53:45.875Z,103032.13
2023-01-23T12:56:17.198Z,103031.97
2023-01-23T12:58:48.367Z,103028.38
2023-01-23T13:01:29.611Z,103027.53
2023-01-23T13:04:04.441Z,103033.81
2023-01-23T13:06:38.576Z,103035.53
2023-01-23T13:09:17.438Z,103034.84
2023-01-23T13:11:54.528Z,103032.97
2023-01-23T13:14:25.568Z,103024.66
2023-01-23T13:16:58.927Z,102996.19
2023-01-23T13:19:45.043Z,103005.22
2023-01-23T13:22:29.084Z,103029.41
2023-01-23T13:25:12.722Z,103031.97
2023-01-23T13:27:44.859Z,102984.25
2023-01-23T13:30:43.947Z,103028.38
2023-01-23T13:33:56.777Z,102997.88
2023-01-23T13:36:36.919Z,103043.69
2023-01-23T13:39:23.747Z,103046.41
2023-01-23T13:42:10.184Z,103052.84
2023-01-23T13:44:41.784Z,103048.41
2023-01-23T14:22:59.428Z,103068.31
2023-01-23T14:25:27.398Z,103055.56
2023-01-23T14:28:03.818Z,103059.28
2023-01-23T14:30:31.830Z,103059.28
2023-01-23T14:33:01.108Z,103066.44
2023-01-23T14:35:30.371Z,103064.56
2023-01-23T14:37:59.348Z,103066.59
2023-01-23T14:40:29.796Z,103066.44
2023-01-23T14:43:03.288Z,103068.31
2023-01-23T14:45:33.107Z,103072.59
2023-01-23T14:48:07.180Z,103076.31
2023-01-23T14:50:35.775Z,103079.03
2023-01-23T14:53:04.563Z,103078.31
2023-01-23T14:55:32.865Z,103075.31
2023-01-23T14:58:01.010Z,103079.88
2023-01-23T15:00:29.015Z,103085.13
2023-01-23T15:02:57.402Z,103079.03
2023-01-23T15:05:27.389Z,103071.00
2023-01-23T15:07:57.001Z,103090.56
2023-01-23T15:10:26.110Z,103083.47
2023-01-23T15:12:55.508Z,103095.16
2023-01-23T15:15:24.667Z,103090.56
2023-01-23T15:17:53.161Z,103087.00
2023-01-23T15:20:38.421Z,103078.03
2023-01-23T15:23:31.297Z,103075.13
2023-01-23T15:26:13.310Z,103080.75
2023-01-23T15:28:41.991Z,103079.88
2023-01-23T15:31:26.552Z,103078.84
2023-01-23T15:33:54.626Z,103086.69
2023-01-23T15:36:30.644Z,103088.56
2023-01-23T15:38:59.187Z,102999.75
2023-01-23T15:41:45.158Z,103086.69
2023-01-23T15:44:14.206Z,103083.97
2023-01-23T15:46:42.239Z,103084.84
2023-01-23T15:49:19.912Z,103082.75
2023-01-23T15:51:55.905Z,103093.13
2023-01-23T15:54:26.427Z,103093.13
2023-01-23T15:57:06.616Z,103088.72
2023-01-23T15:59:35.756Z,103096.72
2023-01-23T16:02:03.962Z,103088.91
2023-01-23T16:04:31.960Z,103087.00
2023-01-23T16:07:02.358Z,103077.63
2023-01-23T16:09:31.368Z,103087.00
2023-01-23T16:12:00.092Z,102976.91
2023-01-23T16:14:28.054Z,103074.25
2023-01-23T16:16:58.301Z,103078.84
2023-01-23T16:19:32.806Z,103076.31
2023-01-23T16:22:05.207Z,103076.13
2023-01-23T16:24:35.209Z,103070.69
2023-01-23T16:27:03.256Z,103073.41
2023-01-23T16:29:31.949Z,103064.44
2023-01-23T16:32:00.443Z,103060.84
2023-01-23T16:34:28.396Z,103058.13
2023-01-23T16:36:57.540Z,103035.31
2023-01-23T16:39:28.137Z,103050.84
2023-01-23T16:41:56.301Z,103029.38
2023-01-23T16:44:24.868Z,103042.84
2023-01-23T16:46:53.032Z,103050.84
2023-01-23T16:49:21.510Z,103038.38
2023-01-23T16:51:55.677Z,103018.59
2023-01-23T16:54:48.369Z,102949.19
2023-01-23T16:57:18.575Z,103057.09
2023-01-23T16:59:46.529Z,103064.44
2023-01-23T17:02:18.435Z,103075.31
2023-01-23T17:04:46.357Z,103044.28
2023-01-23T17:07:15.705Z,103070.88
2023-01-23T17:09:43.747Z,103079.03
2023-01-23T17:12:15.475Z,103019.03
2023-01-23T17:14:43.487Z,103075.31
2023-01-23T17:17:13.756Z,103071.72
2023-01-23T17:19:42.620Z,103076.31
2023-01-23T17:22:19.061Z,103070.88
2023-01-23T17:24:47.275Z,103079.03
2023-01-23T17:27:16.627Z,103023.78
2023-01-23T17:29:44.559Z,103082.59
2023-01-23T17:32:20.395Z,103098.06
2023-01-23T17:34:50.263Z,103093.47
2023-01-23T17:37:20.575Z,103012.25
2023-01-23T17:39:48.453Z,103093.47
2023-01-23T17:42:18.003Z,103071.00
2023-01-23T17:44:45.970Z,103092.63
2023-01-23T17:47:50.225Z,103057.34
2023-01-23T17:50:19.018Z,103079.88
2023-01-23T17:52:47.765Z,103073.59
2023-01-23T17:55:16.348Z,103029.44
2023-01-23T17:57:46.080Z,103075.44
2023-01-23T18:00:15.896Z,103079.03
2023-01-23T18:02:44.021Z,103051.75
2023-01-23T18:05:12.319Z,103065.59
2023-01-23T18:07:53.063Z,103075.31
2023-01-23T18:10:22.054Z,103060.00
2023-01-23T18:12:52.952Z,103064.44
2023-01-23T18:15:29.261Z,103067.16
2023-01-23T18:18:01.374Z,103076.13
2023-01-23T18:20:30.135Z,103025.84
2023-01-23T18:22:59.208Z,103075.31
2023-01-23T18:25:27.711Z,103079.69
2023-01-23T18:27:57.698Z,103084.28
2023-01-23T18:30:41.206Z,103013.06
2023-01-23T18:33:17.789Z,103077.16
2023-01-23T18:35:58.457Z,103077.16
2023-01-23T18:38:30.787Z,103073.59
2023-01-23T18:41:07.251Z,103069.00
2023-01-23T18:43:39.707Z,103020.06
2023-01-23T18:46:28.075Z,103050.41
2023-01-23T18:48:59.230Z,103052.97
2023-01-23T18:51:35.130Z,103063.56
2023-01-23T18:54:19.741Z,103074.44
2023-01-23T18:56:55.782Z,103035.06
2023-01-23T18:59:33.676Z,103070.16
2023-01-23T19:02:04.436Z,103078.03
2023-01-23T19:04:37.008Z,103069.81
2023-01-23T19:07:08.790Z,103072.72
2023-01-23T19:09:40.096Z,103074.44
2023-01-23T19:12:24.837Z,103074.44
2023-01-23T19:15:24.075Z,103023.28
2023-01-23T19:17:54.337Z,103079.19
2023-01-23T19:20:27.855Z,103070.66
2023-01-23T19:23:01.890Z,103084.47
2023-01-23T19:25:30.404Z,103087.34
2023-01-23T19:27:58.723Z,103100.78
2023-01-23T19:30:28.850Z,103102.78
2023-01-23T19:32:57.060Z,103110.63
2023-01-23T19:35:24.944Z,103111.81
2023-01-23T19:37:53.251Z,103116.09
2023-01-23T19:40:21.214Z,103114.53
2023-01-23T19:42:58.850Z,103102.75
2023-01-23T19:45:38.348Z,103120.66
2023-01-23T19:48:06.598Z,103120.81
2023-01-23T19:50:34.495Z,103119.81
2023-01-23T19:53:02.743Z,103129.81
2023-01-23T19:55:31.807Z,103094.69
2023-01-23T19:57:59.723Z,103134.25
2023-01-23T20:00:29.627Z,103130.69
2023-01-23T20:02:59.315Z,103127.97
2023-01-23T20:05:27.276Z,103135.25
2023-01-23T20:07:58.742Z,103129.97
2023-01-23T20:10:28.051Z,103096.03
2023-01-23T20:12:56.765Z,103119.22
2023-01-23T20:15:25.709Z,103138.84
2023-01-23T20:17:53.680Z,103139.63
2023-01-23T20:20:23.517Z,103151.56
2023-01-23T20:22:51.916Z,103147.13
2023-01-23T20:25:20.229Z,103157.16
2023-01-23T20:27:48.275Z,103155.28
2023-01-23T20:30:18.116Z,103080.22
2023-01-23T20:32:46.364Z,103157.16
2023-01-23T20:35:14.274Z,103149.00
2023-01-23T20:37:45.127Z,103138.38
2023-01-23T20:40:17.774Z,103138.94
2023-01-23T20:42:50.612Z,103147.13
2023-01-23T20:45:19.134Z,103155.28
2023-01-23T20:47:47.243Z,103158.00
2023-01-23T20:50:15.151Z,103149.00
2023-01-23T20:52:58.609Z,103151.72
2023-01-23T20:55:26.601Z,103149.84
2023-01-23T20:58:11.781Z,103114.88
2023-01-23T21:00:39.702Z,103124.13
2023-01-23T21:03:07.903Z,103141.31
2023-01-23T21:05:35.796Z,103143.72
2023-01-23T21:08:05.281Z,103146.28
2023-01-23T21:10:33.188Z,103143.72
2023-01-23T21:13:01.363Z,103153.59
2023-01-23T21:15:30.958Z,103146.28
2023-01-23T21:18:00.244Z,103155.44
2023-01-23T21:20:28.208Z,103146.28
2023-01-23T21:22:56.362Z,103138.47
2023-01-23T21:25:25.672Z,103138.28
2023-01-23T21:27:53.551Z,103141.00
2023-01-23T21:30:21.661Z,103086.13
2023-01-23T21:32:50.423Z,103133.69
2023-01-23T21:35:18.974Z,103125.72
2023-01-23T21:37:47.124Z,103132.84
2023-01-23T21:40:15.345Z,103107.63
2023-01-23T21:42:44.947Z,103115.69
2023-01-23T21:45:13.151Z,103110.72
2023-01-23T21:47:41.052Z,103122.81
2023-01-23T21:50:10.371Z,103126.56
2023-01-23T21:52:38.584Z,103126.56
2023-01-23T21:55:07.377Z,103130.13
2023-01-23T21:57:35.339Z,103129.97
2023-01-23T22:00:22.464Z,103100.66
2023-01-23T22:02:50.369Z,103130.13
2023-01-23T22:05:18.392Z,103130.13
2023-01-23T22:07:47.430Z,103123.84
2023-01-23T22:10:15.363Z,103126.56
2023-01-23T22:12:43.552Z,103130.97
2023-01-23T22:15:13.251Z,103137.28
2023-01-23T22:17:41.126Z,103129.97
2023-01-23T22:20:10.389Z,103131.97
2023-01-23T22:22:38.599Z,103136.41
2023-01-23T22:25:07.440Z,103131.97
2023-01-23T22:27:35.355Z,103108.50
2023-01-23T22:30:03.483Z,103129.13
2023-01-23T22:32:35.064Z,103130.97
2023-01-23T22:35:03.054Z,103128.25
2023-01-23T22:37:31.192Z,103100.53
2023-01-23T22:39:59.143Z,103113.66
2023-01-23T22:42:28.351Z,103111.81
2023-01-23T22:44:56.252Z,103113.66
2023-01-23T22:47:41.115Z,103112.66
2023-01-23T22:50:11.926Z,103117.94
2023-01-23T22:52:41.572Z,103118.78
2023-01-23T22:55:09.525Z,103116.09
2023-01-23T22:57:37.438Z,103116.91
2023-01-23T23:00:08.264Z,103124.91
2023-01-23T23:02:37.405Z,103129.50
2023-01-23T23:05:06.151Z,103128.47
2023-01-23T23:07:36.430Z,103125.91
2023-01-23T23:10:04.511Z,103125.06
2023-01-23T23:12:32.677Z,103125.53
2023-01-23T23:15:00.564Z,103132.22
2023-01-23T23:17:29.786Z,103131.34
2023-01-23T23:19:57.767Z,103125.91
2023-01-23T23:22:26.042Z,103118.63
2023-01-23T23:24:55.336Z,103124.06
2023-01-23T23:27:23.237Z,103119.63
2023-01-23T23:29:51.125Z,103136.78
2023-01-23T23:32:19.342Z,103132.38
2023-01-23T23:34:47.308Z,103129.66
2023-01-23T23:37:16.838Z,103126.94
2023-01-23T23:39:44.730Z,103118.78
2023-01-23T23:42:14.351Z,103118.78
2023-01-23T23:44:43.042Z,103113.34
2023-01-23T23:47:10.907Z,103117.75
2023-01-23T23:49:38.876Z,103116.91
2023-01-23T23:52:07.012Z,103112.66
2023-01-23T23:54:35.070Z,103113.50
2023-01-23T23:57:03.002Z,103120.66
2023-01-23T23:59:33.348Z,103117.09
